sensor_id;sensor_type;location;lat;lon;timestamp;pressure;altitude;pressure_sealevel;temperature;humidity
66273;BME280;58450;52.150;4.466;2022-08-19T00:00:40;101369.72;;;18.55;100.00
66273;BME280;58450;52.150;4.466;2022-08-19T00:03:08;101375.78;;;18.57;100.00
66273;BME280;58450;52.150;4.466;2022-08-19T00:05:36;101380.78;;;18.60;100.00
66273;BME280;58450;52.150;4.466;2022-08-19T00:08:03;101373.41;;;18.61;100.00
66273;BME280;58450;52.150;4.466;2022-08-19T00:10:31;101378.97;;;18.54;100.00
66273;BME280;58450;52.150;4.466;2022-08-19T00:12:59;101376.50;;;18.27;100.00
66273;BME280;58450;52.150;4.466;2022-08-19T00:15:28;101368.88;;;18.17;100.00
66273;BME280;58450;52.150;4.466;2022-08-19T00:17:56;101370.53;;;18.19;100.00
66273;BME280;58450;52.150;4.466;2022-08-19T00:20:23;101365.09;;;18.19;100.00
66273;BME280;58450;52.150;4.466;2022-08-19T00:22:51;101374.31;;;18.17;100.00
66273;BME280;58450;52.150;4.466;2022-08-19T00:25:20;101372.41;;;18.18;100.00
66273;BME280;58450;52.150;4.466;2022-08-19T00:27:49;101372.41;;;18.18;100.00
66273;BME280;58450;52.150;4.466;2022-08-19T00:30:17;101374.69;;;18.21;100.00
66273;BME280;58450;52.150;4.466;2022-08-19T00:32:46;101374.25;;;18.24;100.00
66273;BME280;58450;52.150;4.466;2022-08-19T00:35:14;101368.34;;;18.27;100.00
66273;BME280;58450;52.150;4.466;2022-08-19T00:37:43;101370.00;;;18.28;100.00
66273;BME280;58450;52.150;4.466;2022-08-19T00:40:12;101377.13;;;18.29;100.00
66273;BME280;58450;52.150;4.466;2022-08-19T00:42:40;101379.84;;;18.29;100.00
66273;BME280;58450;52.150;4.466;2022-08-19T00:45:13;101379.03;;;18.29;100.00
66273;BME280;58450;52.150;4.466;2022-08-19T00:47:43;101385.59;;;18.21;100.00
66273;BME280;58450;52.150;4.466;2022-08-19T00:50:12;101374.38;;;18.11;100.00
66273;BME280;58450;52.150;4.466;2022-08-19T00:52:42;101367.34;;;18.03;100.00
66273;BME280;58450;52.150;4.466;2022-08-19T00:55:13;101369.06;;;17.97;100.00
66273;BME280;58450;52.150;4.466;2022-08-19T00:57:46;101373.28;;;17.93;100.00
66273;BME280;58450;52.150;4.466;2022-08-19T01:00:23;101381.72;;;17.85;100.00
66273;BME280;58450;52.150;4.466;2022-08-19T01:02:52;101366.31;;;17.72;100.00
66273;BME280;58450;52.150;4.466;2022-08-19T01:05:23;101372.72;;;17.59;100.00
66273;BME280;58450;52.150;4.466;2022-08-19T01:07:54;101376.94;;;17.55;100.00
66273;BME280;58450;52.150;4.466;2022-08-19T01:10:25;101381.56;;;17.54;100.00
66273;BME280;58450;52.150;4.466;2022-08-19T01:12:57;101377.94;;;17.61;100.00
66273;BME280;58450;52.150;4.466;2022-08-19T01:15:27;101386.88;;;17.68;100.00
66273;BME280;58450;52.150;4.466;2022-08-19T01:17:58;101386.84;;;17.75;100.00
66273;BME280;58450;52.150;4.466;2022-08-19T01:20:29;101385.53;;;17.77;100.00
66273;BME280;58450;52.150;4.466;2022-08-19T01:22:58;101385.50;;;17.84;100.00
66273;BME280;58450;52.150;4.466;2022-08-19T01:25:26;101401.59;;;17.85;100.00
66273;BME280;58450;52.150;4.466;2022-08-19T01:27:57;101403.50;;;17.85;100.00
66273;BME280;58450;52.150;4.466;2022-08-19T01:30:26;101398.06;;;17.85;100.00
66273;BME280;58450;52.150;4.466;2022-08-19T01:32:56;101394.28;;;17.86;100.00
66273;BME280;58450;52.150;4.466;2022-08-19T01:35:25;101387.78;;;17.87;100.00
66273;BME280;58450;52.150;4.466;2022-08-19T01:37:55;101386.50;;;17.90;100.00
66273;BME280;58450;52.150;4.466;2022-08-19T01:40:27;101374.97;;;17.87;100.00
66273;BME280;58450;52.150;4.466;2022-08-19T01:42:57;101378.75;;;17.86;100.00
66273;BME280;58450;52.150;4.466;2022-08-19T01:45:26;101386.13;;;17.86;100.00
66273;BME280;58450;52.150;4.466;2022-08-19T01:47:54;101390.50;;;17.87;100.00
66273;BME280;58450;52.150;4.466;2022-08-19T01:50:23;101394.28;;;17.86;100.00
66273;BME280;58450;52.150;4.466;2022-08-19T01:52:51;101393.22;;;17.87;100.00
66273;BME280;58450;52.150;4.466;2022-08-19T01:55:20;101398.88;;;17.85;100.00
66273;BME280;58450;52.150;4.466;2022-08-19T01:57:52;101393.66;;;17.84;100.00
66273;BME280;58450;52.150;4.466;2022-08-19T02:00:25;101388.22;;;17.84;100.00
66273;BME280;58450;52.150;4.466;2022-08-19T02:02:56;101385.94;;;17.81;100.00
66273;BME280;58450;52.150;4.466;2022-08-19T02:05:23;101384.66;;;17.83;100.00
66273;BME280;58450;52.150;4.466;2022-08-19T02:07:51;101382.53;;;17.85;100.00
66273;BME280;58450;52.150;4.466;2022-08-19T02:10:19;101383.38;;;17.86;100.00
66273;BME280;58450;52.150;4.466;2022-08-19T02:12:48;101379.63;;;17.87;100.00
66273;BME280;58450;52.150;4.466;2022-08-19T02:15:18;101383.16;;;17.87;100.00
66273;BME280;58450;52.150;4.466;2022-08-19T02:17:46;101384.00;;;17.88;100.00
66273;BME280;58450;52.150;4.466;2022-08-19T02:20:13;101390.25;;;17.88;100.00
66273;BME280;58450;52.150;4.466;2022-08-19T02:22:41;101381.28;;;17.88;100.00
66273;BME280;58450;52.150;4.466;2022-08-19T02:25:10;101382.09;;;17.88;100.00
66273;BME280;58450;52.150;4.466;2022-08-19T02:27:37;101376.44;;;17.90;100.00
66273;BME280;58450;52.150;4.466;2022-08-19T02:30:06;101377.50;;;17.89;100.00
66273;BME280;58450;52.150;4.466;2022-08-19T02:32:37;101374.78;;;17.89;100.00
66273;BME280;58450;52.150;4.466;2022-08-19T02:35:05;101382.09;;;17.88;100.00
66273;BME280;58450;52.150;4.466;2022-08-19T02:37:33;101383.56;;;17.91;100.00
66273;BME280;58450;52.150;4.466;2022-08-19T02:40:18;101379.53;;;17.94;100.00
66273;BME280;58450;52.150;4.466;2022-08-19T02:42:45;101382.06;;;17.95;100.00
66273;BME280;58450;52.150;4.466;2022-08-19T02:45:13;101372.81;;;17.96;100.00
66273;BME280;58450;52.150;4.466;2022-08-19T02:47:42;101368.19;;;17.97;100.00
66273;BME280;58450;52.150;4.466;2022-08-19T02:50:09;101378.69;;;18.00;100.00
66273;BME280;58450;52.150;4.466;2022-08-19T02:52:36;101376.56;;;18.02;100.00
66273;BME280;58450;52.150;4.466;2022-08-19T02:55:04;101376.00;;;17.93;100.00
66273;BME280;58450;52.150;4.466;2022-08-19T02:57:32;101375.44;;;17.84;100.00
66273;BME280;58450;52.150;4.466;2022-08-19T02:59:59;101361.03;;;17.77;100.00
66273;BME280;58450;52.150;4.466;2022-08-19T03:02:28;101364.00;;;17.76;100.00
66273;BME280;58450;52.150;4.466;2022-08-19T03:04:57;101348.94;;;17.73;100.00
66273;BME280;58450;52.150;4.466;2022-08-19T03:07:24;101356.88;;;17.75;100.00
66273;BME280;58450;52.150;4.466;2022-08-19T03:09:51;101357.09;;;17.73;100.00
66273;BME280;58450;52.150;4.466;2022-08-19T03:12:19;101363.59;;;17.72;100.00
66273;BME280;58450;52.150;4.466;2022-08-19T03:14:46;101355.44;;;17.72;100.00
66273;BME280;58450;52.150;4.466;2022-08-19T03:17:13;101355.66;;;17.70;100.00
66273;BME280;58450;52.150;4.466;2022-08-19T03:19:40;101350.22;;;17.70;100.00
66273;BME280;58450;52.150;4.466;2022-08-19T03:22:10;101357.53;;;17.70;100.00
66273;BME280;58450;52.150;4.466;2022-08-19T03:24:37;101364.50;;;17.66;100.00
66273;BME280;58450;52.150;4.466;2022-08-19T03:27:04;101367.44;;;17.64;100.00
66273;BME280;58450;52.150;4.466;2022-08-19T03:29:32;101369.16;;;17.58;100.00
66273;BME280;58450;52.150;4.466;2022-08-19T03:32:00;101356.81;;;17.56;100.00
66273;BME280;58450;52.150;4.466;2022-08-19T03:34:30;101354.72;;;17.58;100.00
66273;BME280;58450;52.150;4.466;2022-08-19T03:37:02;101351.19;;;17.57;100.00
66273;BME280;58450;52.150;4.466;2022-08-19T03:39:33;101351.56;;;17.61;100.00
66273;BME280;58450;52.150;4.466;2022-08-19T03:42:02;101350.13;;;17.58;100.00
66273;BME280;58450;52.150;4.466;2022-08-19T03:44:30;101348.44;;;17.57;100.00
66273;BME280;58450;52.150;4.466;2022-08-19T03:46:58;101356.00;;;17.55;100.00
66273;BME280;58450;52.150;4.466;2022-08-19T03:49:27;101357.44;;;17.58;100.00
66273;BME280;58450;52.150;4.466;2022-08-19T03:51:57;101361.81;;;17.59;100.00
66273;BME280;58450;52.150;4.466;2022-08-19T03:54:26;101361.66;;;17.54;100.00
66273;BME280;58450;52.150;4.466;2022-08-19T03:56:56;101360.84;;;17.53;100.00
66273;BME280;58450;52.150;4.466;2022-08-19T03:59:24;101366.94;;;17.49;100.00
66273;BME280;58450;52.150;4.466;2022-08-19T04:01:55;101365.88;;;17.50;100.00
66273;BME280;58450;52.150;4.466;2022-08-19T04:04:23;101364.44;;;17.47;100.00
66273;BME280;58450;52.150;4.466;2022-08-19T04:06:52;101362.34;;;17.49;100.00
66273;BME280;58450;52.150;4.466;2022-08-19T04:09:19;101370.69;;;17.48;100.00
66273;BME280;58450;52.150;4.466;2022-08-19T04:11:48;101369.66;;;17.49;100.00
66273;BME280;58450;52.150;4.466;2022-08-19T04:14:21;101374.03;;;17.50;100.00
66273;BME280;58450;52.150;4.466;2022-08-19T04:16:49;101379.47;;;17.50;100.00
66273;BME280;58450;52.150;4.466;2022-08-19T04:19:18;101379.91;;;17.47;100.00
66273;BME280;58450;52.150;4.466;2022-08-19T04:21:47;101377.44;;;17.45;100.00
66273;BME280;58450;52.150;4.466;2022-08-19T04:24:15;101383.69;;;17.46;100.00
66273;BME280;58450;52.150;4.466;2022-08-19T04:26:44;101386.22;;;17.47;100.00
66273;BME280;58450;52.150;4.466;2022-08-19T04:29:12;101380.75;;;17.47;100.00
66273;BME280;58450;52.150;4.466;2022-08-19T04:31:43;101384.53;;;17.46;100.00
66273;BME280;58450;52.150;4.466;2022-08-19T04:34:11;101381.59;;;17.48;100.00
66273;BME280;58450;52.150;4.466;2022-08-19T04:36:41;101382.63;;;17.47;100.00
66273;BME280;58450;52.150;4.466;2022-08-19T04:39:11;101377.00;;;17.48;100.00
66273;BME280;58450;52.150;4.466;2022-08-19T04:41:41;101376.56;;;17.51;100.00
66273;BME280;58450;52.150;4.466;2022-08-19T04:44:26;101384.88;;;17.56;100.00
66273;BME280;58450;52.150;4.466;2022-08-19T04:46:57;101373.16;;;17.56;100.00
66273;BME280;58450;52.150;4.466;2022-08-19T04:49:25;101371.03;;;17.58;100.00
66273;BME280;58450;52.150;4.466;2022-08-19T04:51:53;101377.72;;;17.62;100.00
66273;BME280;58450;52.150;4.466;2022-08-19T04:54:21;101369.53;;;17.62;100.00
66273;BME280;58450;52.150;4.466;2022-08-19T04:56:50;101382.28;;;17.68;100.00
66273;BME280;58450;52.150;4.466;2022-08-19T04:59:19;101388.09;;;17.72;100.00
66273;BME280;58450;52.150;4.466;2022-08-19T05:01:47;101388.94;;;17.72;100.00
66273;BME280;58450;52.150;4.466;2022-08-19T05:04:17;101391.00;;;17.77;100.00
66273;BME280;58450;52.150;4.466;2022-08-19T05:06:46;101389.13;;;17.78;100.00
66273;BME280;58450;52.150;4.466;2022-08-19T05:09:15;101388.44;;;17.82;100.00
66273;BME280;58450;52.150;4.466;2022-08-19T05:11:43;101388.22;;;17.84;100.00
66273;BME280;58450;52.150;4.466;2022-08-19T05:14:10;101399.50;;;17.87;100.00
66273;BME280;58450;52.150;4.466;2022-08-19T05:16:39;101398.22;;;17.90;100.00
66273;BME280;58450;52.150;4.466;2022-08-19T05:19:07;101399.28;;;17.89;100.00
66273;BME280;58450;52.150;4.466;2022-08-19T05:21:53;101404.91;;;17.94;100.00
66273;BME280;58450;52.150;4.466;2022-08-19T05:24:38;101402.13;;;18.01;100.00
66273;BME280;58450;52.150;4.466;2022-08-19T05:27:05;101396.41;;;18.09;100.00
66273;BME280;58450;52.150;4.466;2022-08-19T05:29:33;101383.41;;;18.11;100.00
66273;BME280;58450;52.150;4.466;2022-08-19T05:32:01;101390.59;;;18.06;100.00
66273;BME280;58450;52.150;4.466;2022-08-19T05:34:33;101385.75;;;18.08;100.00
66273;BME280;58450;52.150;4.466;2022-08-19T05:37:03;101382.19;;;18.07;100.00
66273;BME280;58450;52.150;4.466;2022-08-19T05:39:32;101386.13;;;18.11;100.00
66273;BME280;58450;52.150;4.466;2022-08-19T05:42:01;101389.44;;;18.13;100.00
66273;BME280;58450;52.150;4.466;2022-08-19T05:44:33;101378.88;;;18.24;100.00
66273;BME280;58450;52.150;4.466;2022-08-19T05:47:04;101374.25;;;18.24;100.00
66273;BME280;58450;52.150;4.466;2022-08-19T05:49:34;101366.31;;;18.23;100.00
66273;BME280;58450;52.150;4.466;2022-08-19T05:52:05;101375.00;;;18.31;100.00
66273;BME280;58450;52.150;4.466;2022-08-19T05:54:34;101370.41;;;18.32;100.00
66273;BME280;58450;52.150;4.466;2022-08-19T05:57:03;101382.53;;;18.36;100.00
66273;BME280;58450;52.150;4.466;2022-08-19T05:59:31;101385.31;;;18.48;100.00
66273;BME280;58450;52.150;4.466;2022-08-19T06:02:01;101385.91;;;18.50;100.00
66273;BME280;58450;52.150;4.466;2022-08-19T06:04:29;101387.28;;;18.59;100.00
66273;BME280;58450;52.150;4.466;2022-08-19T06:06:56;101399.00;;;18.60;100.00
66273;BME280;58450;52.150;4.466;2022-08-19T06:09:25;101391.44;;;18.62;100.00
66273;BME280;58450;52.150;4.466;2022-08-19T06:11:52;101393.72;;;18.65;100.00
66273;BME280;58450;52.150;4.466;2022-08-19T06:14:22;101380.94;;;18.66;100.00
66273;BME280;58450;52.150;4.466;2022-08-19T06:16:51;101384.41;;;18.73;100.00
66273;BME280;58450;52.150;4.466;2022-08-19T06:19:19;101377.66;;;18.75;100.00
66273;BME280;58450;52.150;4.466;2022-08-19T06:21:50;101390.31;;;18.88;100.00
66273;BME280;58450;52.150;4.466;2022-08-19T06:24:19;101388.09;;;18.97;100.00
66273;BME280;58450;52.150;4.466;2022-08-19T06:26:50;101390.50;;;19.05;100.00
66273;BME280;58450;52.150;4.466;2022-08-19T06:29:20;101386.28;;;19.22;100.00
66273;BME280;58450;52.150;4.466;2022-08-19T06:31:50;101378.50;;;19.25;100.00
66273;BME280;58450;52.150;4.466;2022-08-19T06:34:18;101382.19;;;19.31;100.00
66273;BME280;58450;52.150;4.466;2022-08-19T06:36:47;101381.72;;;19.34;100.00
66273;BME280;58450;52.150;4.466;2022-08-19T06:39:16;101376.84;;;19.36;100.00
66273;BME280;58450;52.150;4.466;2022-08-19T06:41:45;101380.06;;;19.45;100.00
66273;BME280;58450;52.150;4.466;2022-08-19T06:44:16;101383.31;;;19.54;100.00
66273;BME280;58450;52.150;4.466;2022-08-19T06:46:43;101376.56;;;19.68;100.00
66273;BME280;58450;52.150;4.466;2022-08-19T06:49:11;101378.25;;;19.69;100.00
66273;BME280;58450;52.150;4.466;2022-08-19T06:51:40;101379.78;;;19.77;100.00
66273;BME280;58450;52.150;4.466;2022-08-19T06:54:09;101382.63;;;19.82;100.00
66273;BME280;58450;52.150;4.466;2022-08-19T06:56:37;101379.69;;;19.84;100.00
66273;BME280;58450;52.150;4.466;2022-08-19T06:59:05;101378.97;;;20.00;100.00
66273;BME280;58450;52.150;4.466;2022-08-19T07:01:36;101375.78;;;20.27;100.00
66273;BME280;58450;52.150;4.466;2022-08-19T07:04:05;101381.44;;;20.49;100.00
66273;BME280;58450;52.150;4.466;2022-08-19T07:06:34;101371.78;;;20.59;100.00
66273;BME280;58450;52.150;4.466;2022-08-19T07:09:02;101381.06;;;20.70;100.00
66273;BME280;58450;52.150;4.466;2022-08-19T07:11:30;101375.81;;;20.68;100.00
66273;BME280;58450;52.150;4.466;2022-08-19T07:13:59;101378.31;;;20.58;100.00
66273;BME280;58450;52.150;4.466;2022-08-19T07:16:27;101382.88;;;20.52;100.00
66273;BME280;58450;52.150;4.466;2022-08-19T07:18:56;101387.28;;;20.53;100.00
66273;BME280;58450;52.150;4.466;2022-08-19T07:21:24;101382.38;;;20.55;100.00
66273;BME280;58450;52.150;4.466;2022-08-19T07:23:53;101399.13;;;20.59;100.00
66273;BME280;58450;52.150;4.466;2022-08-19T07:26:22;101391.41;;;20.56;100.00
66273;BME280;58450;52.150;4.466;2022-08-19T07:28:50;101394.72;;;20.70;100.00
66273;BME280;58450;52.150;4.466;2022-08-19T07:31:20;101398.38;;;20.87;100.00
66273;BME280;58450;52.150;4.466;2022-08-19T07:33:50;101390.84;;;21.23;100.00
66273;BME280;58450;52.150;4.466;2022-08-19T07:36:23;101389.88;;;21.30;100.00
66273;BME280;58450;52.150;4.466;2022-08-19T07:38:54;101389.00;;;21.12;100.00
66273;BME280;58450;52.150;4.466;2022-08-19T07:41:22;101385.16;;;20.96;100.00
66273;BME280;58450;52.150;4.466;2022-08-19T07:43:51;101400.88;;;20.89;100.00
66273;BME280;58450;52.150;4.466;2022-08-19T07:46:19;101394.47;;;20.71;100.00
66273;BME280;58450;52.150;4.466;2022-08-19T07:48:47;101399.72;;;20.61;100.00
66273;BME280;58450;52.150;4.466;2022-08-19T07:51:17;101408.66;;;20.56;100.00
66273;BME280;58450;52.150;4.466;2022-08-19T07:53:48;101397.94;;;20.66;100.00
66273;BME280;58450;52.150;4.466;2022-08-19T07:56:17;101383.03;;;21.15;100.00
66273;BME280;58450;52.150;4.466;2022-08-19T07:58:46;101386.66;;;21.33;100.00
66273;BME280;58450;52.150;4.466;2022-08-19T08:01:16;101377.78;;;21.43;100.00
66273;BME280;58450;52.150;4.466;2022-08-19T08:03:45;101379.09;;;21.40;100.00
66273;BME280;58450;52.150;4.466;2022-08-19T08:06:30;101383.84;;;21.45;100.00
66273;BME280;58450;52.150;4.466;2022-08-19T08:09:16;101395.34;;;21.30;100.00
66273;BME280;58450;52.150;4.466;2022-08-19T08:11:48;101407.56;;;21.10;100.00
66273;BME280;58450;52.150;4.466;2022-08-19T08:14:17;101397.00;;;21.02;100.00
66273;BME280;58450;52.150;4.466;2022-08-19T08:16:49;101394.91;;;21.67;100.00
66273;BME280;58450;52.150;4.466;2022-08-19T08:19:18;101401.47;;;22.00;100.00
66273;BME280;58450;52.150;4.466;2022-08-19T08:21:46;101401.81;;;21.69;100.00
66273;BME280;58450;52.150;4.466;2022-08-19T08:24:16;101405.50;;;21.46;100.00
66273;BME280;58450;52.150;4.466;2022-08-19T08:26:44;101414.59;;;21.35;100.00
66273;BME280;58450;52.150;4.466;2022-08-19T08:29:12;101397.59;;;21.79;100.00
66273;BME280;58450;52.150;4.466;2022-08-19T08:31:42;101404.88;;;21.73;100.00
66273;BME280;58450;52.150;4.466;2022-08-19T08:34:11;101418.03;;;21.59;100.00
66273;BME280;58450;52.150;4.466;2022-08-19T08:36:40;101423.31;;;21.32;100.00
66273;BME280;58450;52.150;4.466;2022-08-19T08:39:10;101412.50;;;21.25;100.00
66273;BME280;58450;52.150;4.466;2022-08-19T08:41:42;101426.97;;;21.37;100.00
66273;BME280;58450;52.150;4.466;2022-08-19T08:44:15;101431.72;;;21.13;100.00
66273;BME280;58450;52.150;4.466;2022-08-19T08:46:47;101424.38;;;21.02;100.00
66273;BME280;58450;52.150;4.466;2022-08-19T08:49:20;101423.44;;;21.25;100.00
66273;BME280;58450;52.150;4.466;2022-08-19T08:51:54;101414.63;;;22.37;100.00
66273;BME280;58450;52.150;4.466;2022-08-19T08:54:30;101414.25;;;23.72;100.00
66273;BME280;58450;52.150;4.466;2022-08-19T08:57:04;101406.09;;;23.55;100.00
66273;BME280;58450;52.150;4.466;2022-08-19T08:59:39;101410.63;;;22.45;100.00
66273;BME280;58450;52.150;4.466;2022-08-19T09:02:08;101415.34;;;21.93;100.00
66273;BME280;58450;52.150;4.466;2022-08-19T09:04:36;101423.22;;;21.73;100.00
66273;BME280;58450;52.150;4.466;2022-08-19T09:07:10;101435.44;;;21.36;100.00
66273;BME280;58450;52.150;4.466;2022-08-19T09:09:54;101434.56;;;21.18;100.00
66273;BME280;58450;52.150;4.466;2022-08-19T09:12:34;101433.56;;;21.24;100.00
66273;BME280;58450;52.150;4.466;2022-08-19T09:15:12;101440.22;;;21.29;100.00
66273;BME280;58450;52.150;4.466;2022-08-19T09:17:41;101425.56;;;21.52;100.00
66273;BME280;58450;52.150;4.466;2022-08-19T09:20:13;101429.97;;;21.82;100.00
66273;BME280;58450;52.150;4.466;2022-08-19T09:22:42;101429.94;;;21.99;100.00
66273;BME280;58450;52.150;4.466;2022-08-19T09:25:11;101429.72;;;22.01;100.00
66273;BME280;58450;52.150;4.466;2022-08-19T09:27:41;101436.97;;;22.46;100.00
66273;BME280;58450;52.150;4.466;2022-08-19T09:30:11;101427.16;;;23.17;100.00
66273;BME280;58450;52.150;4.466;2022-08-19T09:32:41;101432.81;;;23.10;100.00
66273;BME280;58450;52.150;4.466;2022-08-19T09:35:09;101437.13;;;22.79;100.00
66273;BME280;58450;52.150;4.466;2022-08-19T09:37:36;101443.06;;;22.14;100.00
66273;BME280;58450;52.150;4.466;2022-08-19T09:40:04;101453.94;;;21.75;100.00
66273;BME280;58450;52.150;4.466;2022-08-19T09:42:32;101452.94;;;21.64;100.00
66273;BME280;58450;52.150;4.466;2022-08-19T09:45:02;101444.16;;;21.79;100.00
66273;BME280;58450;52.150;4.466;2022-08-19T09:47:30;101441.97;;;22.32;100.00
66273;BME280;58450;52.150;4.466;2022-08-19T09:49:58;101447.78;;;22.19;100.00
66273;BME280;58450;52.150;4.466;2022-08-19T09:52:25;101449.63;;;21.79;100.00
66273;BME280;58450;52.150;4.466;2022-08-19T09:54:52;101458.78;;;21.55;100.00
66273;BME280;58450;52.150;4.466;2022-08-19T09:57:19;101463.53;;;21.60;100.00
66273;BME280;58450;52.150;4.466;2022-08-19T09:59:46;101449.31;;;21.92;100.00
66273;BME280;58450;52.150;4.466;2022-08-19T10:02:15;101447.22;;;22.73;100.00
66273;BME280;58450;52.150;4.466;2022-08-19T10:04:43;101436.09;;;23.57;100.00
66273;BME280;58450;52.150;4.466;2022-08-19T10:07:28;101445.72;;;23.59;100.00
66273;BME280;58450;52.150;4.466;2022-08-19T10:09:56;101441.56;;;23.57;100.00
66273;BME280;58450;52.150;4.466;2022-08-19T10:12:23;101441.25;;;23.86;100.00
66273;BME280;58450;52.150;4.466;2022-08-19T10:14:50;101454.53;;;23.34;100.00
66273;BME280;58450;52.150;4.466;2022-08-19T10:17:20;101439.97;;;23.11;100.00
66273;BME280;58450;52.150;4.466;2022-08-19T10:19:47;101440.59;;;23.18;100.00
66273;BME280;58450;52.150;4.466;2022-08-19T10:22:14;101446.19;;;23.01;100.00
66273;BME280;58450;52.150;4.466;2022-08-19T10:24:41;101452.22;;;22.59;100.00
66273;BME280;58450;52.150;4.466;2022-08-19T10:27:09;101454.16;;;22.41;100.00
66273;BME280;58450;52.150;4.466;2022-08-19T10:29:38;101442.84;;;22.38;100.00
66273;BME280;58450;52.150;4.466;2022-08-19T10:32:07;101445.47;;;22.89;100.00
66273;BME280;58450;52.150;4.466;2022-08-19T10:34:37;101447.44;;;23.38;100.00
66273;BME280;58450;52.150;4.466;2022-08-19T10:37:05;101446.38;;;22.72;100.00
66273;BME280;58450;52.150;4.466;2022-08-19T10:39:33;101445.78;;;22.31;100.00
66273;BME280;58450;52.150;4.466;2022-08-19T10:42:04;101453.50;;;22.17;100.00
66273;BME280;58450;52.150;4.466;2022-08-19T10:44:32;101433.63;;;22.05;100.00
66273;BME280;58450;52.150;4.466;2022-08-19T10:47:01;101447.66;;;21.91;100.00
66273;BME280;58450;52.150;4.466;2022-08-19T10:49:28;101446.72;;;21.85;100.00
66273;BME280;58450;52.150;4.466;2022-08-19T10:51:57;101447.06;;;21.89;100.00
66273;BME280;58450;52.150;4.466;2022-08-19T10:54:42;101455.69;;;21.81;100.00
66273;BME280;58450;52.150;4.466;2022-08-19T10:57:29;101454.34;;;21.83;100.00
66273;BME280;58450;52.150;4.466;2022-08-19T10:59:57;101440.16;;;22.21;100.00
66273;BME280;58450;52.150;4.466;2022-08-19T11:02:25;101451.72;;;23.56;100.00
66273;BME280;58450;52.150;4.466;2022-08-19T11:04:52;101442.19;;;24.83;100.00
66273;BME280;58450;52.150;4.466;2022-08-19T11:07:20;101437.38;;;24.57;100.00
66273;BME280;58450;52.150;4.466;2022-08-19T11:09:50;101436.38;;;24.31;100.00
66273;BME280;58450;52.150;4.466;2022-08-19T11:12:17;101449.50;;;23.81;100.00
66273;BME280;58450;52.150;4.466;2022-08-19T11:14:45;101452.00;;;23.27;100.00
66273;BME280;58450;52.150;4.466;2022-08-19T11:17:15;101444.13;;;22.69;100.00
66273;BME280;58450;52.150;4.466;2022-08-19T11:19:42;101455.16;;;22.52;100.00
66273;BME280;58450;52.150;4.466;2022-08-19T11:22:09;101455.88;;;22.08;100.00
66273;BME280;58450;52.150;4.466;2022-08-19T11:24:38;101450.88;;;22.05;100.00
66273;BME280;58450;52.150;4.466;2022-08-19T11:27:06;101449.38;;;22.14;100.00
66273;BME280;58450;52.150;4.466;2022-08-19T11:29:35;101442.41;;;22.24;100.00
66273;BME280;58450;52.150;4.466;2022-08-19T11:32:05;101451.19;;;22.26;100.00
66273;BME280;58450;52.150;4.466;2022-08-19T11:34:34;101450.69;;;22.46;100.00
66273;BME280;58450;52.150;4.466;2022-08-19T11:37:02;101454.16;;;22.41;100.00
66273;BME280;58450;52.150;4.466;2022-08-19T11:39:32;101455.38;;;22.46;100.00
66273;BME280;58450;52.150;4.466;2022-08-19T11:42:03;101451.03;;;22.50;100.00
66273;BME280;58450;52.150;4.466;2022-08-19T11:44:51;101447.38;;;22.66;100.00
66273;BME280;58450;52.150;4.466;2022-08-19T11:47:19;101463.97;;;22.77;100.00
66273;BME280;58450;52.150;4.466;2022-08-19T11:49:46;101459.00;;;22.51;100.00
66273;BME280;58450;52.150;4.466;2022-08-19T11:52:13;101458.00;;;22.40;100.00
66273;BME280;58450;52.150;4.466;2022-08-19T11:54:41;101461.16;;;22.49;100.00
66273;BME280;58450;52.150;4.466;2022-08-19T11:57:09;101461.09;;;22.66;100.00
66273;BME280;58450;52.150;4.466;2022-08-19T11:59:36;101460.47;;;22.59;100.00
66273;BME280;58450;52.150;4.466;2022-08-19T12:02:03;101448.88;;;22.52;100.00
66273;BME280;58450;52.150;4.466;2022-08-19T12:04:30;101453.88;;;22.60;100.00
66273;BME280;58450;52.150;4.466;2022-08-19T12:06:58;101452.69;;;22.73;100.00
66273;BME280;58450;52.150;4.466;2022-08-19T12:09:25;101465.56;;;22.72;100.00
66273;BME280;58450;52.150;4.466;2022-08-19T12:11:52;101458.75;;;22.97;100.00
66273;BME280;58450;52.150;4.466;2022-08-19T12:14:21;101455.38;;;23.62;100.00
66273;BME280;58450;52.150;4.466;2022-08-19T12:16:48;101460.53;;;23.91;100.00
66273;BME280;58450;52.150;4.466;2022-08-19T12:19:16;101444.28;;;23.84;100.00
66273;BME280;58450;52.150;4.466;2022-08-19T12:21:43;101459.69;;;23.08;100.00
66273;BME280;58450;52.150;4.466;2022-08-19T12:24:10;101447.13;;;23.12;100.00
66273;BME280;58450;52.150;4.466;2022-08-19T12:26:38;101450.44;;;23.14;100.00
66273;BME280;58450;52.150;4.466;2022-08-19T12:29:05;101445.13;;;23.85;100.00
66273;BME280;58450;52.150;4.466;2022-08-19T12:31:34;101435.56;;;24.30;100.00
66273;BME280;58450;52.150;4.466;2022-08-19T12:34:01;101439.25;;;23.76;100.00
66273;BME280;58450;52.150;4.466;2022-08-19T12:36:28;101434.66;;;23.87;100.00
66273;BME280;58450;52.150;4.466;2022-08-19T12:38:57;101448.41;;;23.54;100.00
66273;BME280;58450;52.150;4.466;2022-08-19T12:41:25;101445.94;;;23.25;100.00
66273;BME280;58450;52.150;4.466;2022-08-19T12:43:52;101440.00;;;23.34;100.00
66273;BME280;58450;52.150;4.466;2022-08-19T12:46:20;101446.56;;;23.33;100.00
66273;BME280;58450;52.150;4.466;2022-08-19T12:48:48;101442.09;;;23.04;100.00
66273;BME280;58450;52.150;4.466;2022-08-19T12:51:16;101437.63;;;23.20;100.00